Time;durP1;ratioP1;P1;durP2;ratioP2;P2;SDS_P1;SDS_P2;PMS_P1;PMS_P2;Temp;Humidity;BMP_temperature;BMP_pressure;BME280_temperature;BME280_humidity;BME280_pressure;Samples;Min_cycle;Max_cycle;Signal;HPM_P1;HPM_P2
2023/01/17 00:02:18;;;;;;;38.58;15.93;;;;;;;11.13;62.29;97645.22;4258493;33;33587;-80
2023/01/17 00:10:21;;;;;;;55.53;19.05;;;;;;;11.79;60.94;97627.50;4259544;33;32585;-78
2023/01/17 00:12:54;;;;;;;35.10;15.95;;;;;;;10.06;66.17;97615.66;4259121;33;34419;-79
2023/01/17 00:15:25;;;;;;;41.78;16.65;;;;;;;10.87;64.26;97620.84;4262884;33;33806;-78
2023/01/17 00:17:52;;;;;;;33.83;15.48;;;;;;;11.29;62.61;97627.22;4259764;33;33840;-78
2023/01/17 00:26:17;;;;;;;36.33;16.20;;;;;;;10.66;64.62;97637.91;4256874;33;33948;-78
2023/01/17 01:33:38;;;;;;;27.13;14.77;;;;;;;11.35;62.31;97651.44;4259199;33;33671;-78
2023/01/17 01:36:07;;;;;;;28.33;14.45;;;;;;;11.21;62.66;97648.75;4260554;33;33905;-78
2023/01/17 01:38:35;;;;;;;25.02;13.13;;;;;;;10.46;65.08;97657.56;4259110;33;34179;-78
2023/01/17 01:41:03;;;;;;;24.60;13.10;;;;;;;11.23;63.49;97651.34;4259367;33;33981;-78
2023/01/17 01:43:43;;;;;;;22.95;13.00;;;;;;;11.53;62.28;97642.94;4260221;33;34043;-78
2023/01/17 01:46:24;;;;;;;23.12;12.30;;;;;;;11.23;63.62;97647.91;4254909;33;33781;-79
2023/01/17 01:48:57;;;;;;;20.50;11.68;;;;;;;11.21;63.05;97640.97;4260487;33;32881;-79
2023/01/17 01:51:28;;;;;;;22.35;12.05;;;;;;;11.65;62.17;97626.56;4250842;33;34635;-79
2023/01/17 01:54:05;;;;;;;20.80;11.73;;;;;;;9.71;68.51;97619.53;4259332;33;33838;-79
2023/01/17 01:56:35;;;;;;;22.55;12.48;;;;;;;9.53;69.54;97603.81;4260273;33;33715;-79
2023/01/17 01:59:06;;;;;;;20.37;12.20;;;;;;;9.88;68.25;97601.66;4259564;33;33634;-79
2023/01/17 02:01:34;;;;;;;24.70;12.37;;;;;;;10.08;67.68;97591.53;4254763;33;34636;-79
2023/01/17 02:04:03;;;;;;;23.62;13.00;;;;;;;9.93;68.58;97594.84;4260623;33;33866;-79
2023/01/17 02:07:09;;;;;;;25.45;13.50;;;;;;;10.24;67.90;97590.88;4247827;33;34175;-79
2023/01/17 02:09:36;;;;;;;;;;;;;;;10.42;66.85;97597.97;4245684;33;34345;-79
2023/01/17 02:12:04;;;;;;;22.95;12.88;;;;;;;10.79;65.75;97595.72;4261141;33;34984;-79
2023/01/17 02:14:31;;;;;;;20.02;11.98;;;;;;;11.65;62.62;97594.56;4248090;33;31795;-79
2023/01/17 02:17:10;;;;;;;21.87;11.32;;;;;;;10.92;64.34;97590.66;4260807;33;33867;-79
2023/01/17 02:19:49;;;;;;;25.33;15.13;;;;;;;10.80;65.33;97594.03;4257317;33;33151;-79
2023/01/17 02:22:47;;;;;;;24.98;14.38;;;;;;;10.26;67.30;97602.94;4250327;33;34453;-79
2023/01/17 02:25:35;;;;;;;24.87;14.38;;;;;;;11.23;64.79;97593.47;4260614;33;33949;-79
2023/01/17 02:28:29;;;;;;;27.50;14.82;;;;;;;11.60;63.31;97598.00;4260659;33;33521;-79
2023/01/17 02:31:03;;;;;;;28.30;14.98;;;;;;;11.86;62.16;97588.62;4259935;33;33210;-79
2023/01/17 02:33:46;;;;;;;;;;;;;;;11.46;63.59;97591.91;4247575;33;34192;-79
2023/01/17 02:36:21;;;;;;;27.02;15.25;;;;;;;11.47;63.45;97588.41;4244800;33;34807;-79
2023/01/17 02:39:00;;;;;;;26.20;15.07;;;;;;;11.02;65.02;97576.91;4257200;33;33650;-79
2023/01/17 02:41:33;;;;;;;26.55;14.13;;;;;;;10.42;66.59;97592.81;4242953;33;33257;-79
2023/01/17 02:44:01;;;;;;;26.30;15.38;;;;;;;10.13;67.99;97591.63;4242246;33;33379;-80
2023/01/17 02:46:29;;;;;;;26.23;15.85;;;;;;;10.95;65.83;97576.03;4253387;33;33309;-79
2023/01/17 02:48:57;;;;;;;27.98;16.10;;;;;;;10.42;67.58;97564.34;4255136;33;33453;-79
2023/01/17 02:51:30;;;;;;;24.90;14.20;;;;;;;10.93;65.30;97543.16;4241895;33;34162;-79
2023/01/17 02:54:16;;;;;;;26.48;14.50;;;;;;;11.51;62.59;97540.06;4256102;33;34518;-79
2023/01/17 02:57:29;;;;;;;26.20;14.85;;;;;;;11.05;64.60;97539.78;4260519;33;33973;-79
2023/01/17 02:59:58;;;;;;;26.73;14.87;;;;;;;11.79;62.65;97536.72;4233259;33;33546;-79
2023/01/17 03:02:33;;;;;;;24.37;13.60;;;;;;;11.31;63.77;97527.88;4245099;33;34200;-79
2023/01/17 03:05:09;;;;;;;23.87;14.43;;;;;;;10.96;64.72;97520.75;4255102;33;33541;-80
2023/01/17 03:07:38;;;;;;;24.87;15.02;;;;;;;10.89;65.30;97520.69;4243239;33;33613;-79
2023/01/17 03:10:07;;;;;;;25.73;15.50;;;;;;;11.26;64.43;97515.72;4257311;33;33458;-79
2023/01/17 03:12:36;;;;;;;26.37;14.15;;;;;;;11.64;63.18;97510.72;4247494;33;33661;-79
2023/01/17 03:15:11;;;;;;;22.87;13.32;;;;;;;10.70;65.69;97507.63;4256309;33;34568;-79
2023/01/17 03:17:44;;;;;;;22.50;13.60;;;;;;;11.32;63.86;97508.00;4260291;33;33887;-79
2023/01/17 03:20:12;;;;;;;24.27;13.52;;;;;;;12.22;61.06;97504.00;4260077;33;34605;-79
2023/01/17 03:22:39;;;;;;;22.23;12.45;;;;;;;11.75;62.40;97503.84;4260664;33;33441;-79
2023/01/17 03:25:07;;;;;;;21.10;12.00;;;;;;;12.36;60.42;97497.06;4260118;33;34708;-79
2023/01/17 03:27:34;;;;;;;21.80;12.52;;;;;;;12.18;60.57;97497.94;4260405;33;34822;-79
2023/01/17 03:30:03;;;;;;;19.87;12.77;;;;;;;12.67;59.56;97491.88;4260278;33;33906;-79
2023/01/17 03:32:30;;;;;;;21.17;12.30;;;;;;;11.74;62.06;97493.47;4259765;33;32191;-80
2023/01/17 03:34:58;;;;;;;25.12;12.55;;;;;;;11.29;63.69;97482.06;4259491;33;33818;-79
2023/01/17 03:37:26;;;;;;;22.25;12.35;;;;;;;11.37;63.71;97480.38;4259874;33;34696;-79
2023/01/17 03:39:53;;;;;;;20.80;12.15;;;;;;;11.28;64.23;97477.72;4260133;33;33697;-79
2023/01/17 03:42:21;;;;;;;20.88;11.10;;;;;;;10.95;65.24;97476.69;4260480;33;32120;-79
2023/01/17 03:44:48;;;;;;;18.65;10.43;;;;;;;10.70;66.16;97476.56;4259759;33;34026;-79
2023/01/17 03:47:16;;;;;;;23.30;11.30;;;;;;;10.88;65.61;97474.94;4260209;33;33563;-79
2023/01/17 03:49:44;;;;;;;19.20;10.25;;;;;;;12.12;61.47;97471.97;4259884;33;34197;-79
2023/01/17 03:52:11;;;;;;;20.10;9.77;;;;;;;12.07;61.96;97468.50;4259587;33;33206;-79
2023/01/17 03:54:38;;;;;;;15.90;8.50;;;;;;;12.35;60.40;97462.47;4259875;33;33708;-79
2023/01/17 03:57:07;;;;;;;14.77;8.02;;;;;;;12.52;59.70;97466.81;4250094;33;34245;-79
2023/01/17 03:59:34;;;;;;;14.85;8.52;;;;;;;12.25;60.29;97471.13;4259708;33;33955;-79
2023/01/17 04:02:02;;;;;;;16.08;8.75;;;;;;;12.82;59.24;97471.09;4259796;33;32992;-79
2023/01/17 04:04:29;;;;;;;13.70;7.62;;;;;;;12.37;60.21;97458.13;4260050;33;33720;-79
2023/01/17 04:06:57;;;;;;;16.95;8.77;;;;;;;11.49;62.91;97458.81;4259743;33;33673;-79
2023/01/17 04:09:24;;;;;;;15.02;8.15;;;;;;;11.79;61.84;97458.06;4260064;33;34506;-79
2023/01/17 04:11:52;;;;;;;12.75;6.93;;;;;;;12.38;60.07;97459.88;4260349;33;33309;-79
2023/01/17 04:14:20;;;;;;;11.95;6.75;;;;;;;12.67;59.00;97451.22;4259471;33;33657;-79
2023/01/17 04:16:47;;;;;;;13.30;6.68;;;;;;;11.89;61.10;97457.22;4247037;33;34385;-79
2023/01/17 04:19:16;;;;;;;13.88;6.30;;;;;;;11.65;61.59;97464.91;4258578;33;33709;-79
2023/01/17 04:21:43;;;;;;;12.68;6.30;;;;;;;11.09;64.15;97464.72;4246160;33;33428;-79
2023/01/17 04:24:10;;;;;;;14.87;7.30;;;;;;;8.88;71.67;97478.06;4259670;33;35024;-78
2023/01/17 04:26:38;;;;;;;12.73;6.78;;;;;;;9.17;72.58;97476.72;4259638;33;34690;-79
2023/01/17 04:29:05;;;;;;;12.27;6.00;;;;;;;10.50;67.03;97475.53;4259630;33;33843;-78
2023/01/17 04:31:33;;;;;;;11.18;6.10;;;;;;;8.91;73.61;97478.13;4259768;33;33498;-78
2023/01/17 04:34:01;;;;;;;13.73;6.25;;;;;;;9.94;70.43;97469.00;4246429;33;34330;-79
2023/01/17 04:36:29;;;;;;;12.73;6.60;;;;;;;9.83;70.02;97477.50;4259375;33;34424;-79
2023/01/17 04:38:56;;;;;;;12.23;5.35;;;;;;;10.75;67.44;97474.84;4259590;33;34419;-79
2023/01/17 04:41:24;;;;;;;10.48;5.57;;;;;;;10.68;66.52;97478.28;4259627;33;33366;-79
2023/01/17 04:43:51;;;;;;;9.80;4.72;;;;;;;9.87;70.03;97478.41;4258135;33;33957;-79
2023/01/17 04:46:19;;;;;;;11.07;5.00;;;;;;;10.28;68.91;97472.75;4259626;33;34590;-78
2023/01/17 04:48:47;;;;;;;9.70;5.03;;;;;;;8.90;75.14;97477.22;4259308;33;33736;-78
2023/01/17 04:51:15;;;;;;;10.05;5.03;;;;;;;9.58;72.13;97472.91;4258878;33;33305;-79
2023/01/17 04:53:42;;;;;;;9.15;4.53;;;;;;;9.07;73.10;97467.12;4259059;33;34568;-78
2023/01/17 04:56:10;;;;;;;9.40;4.90;;;;;;;7.48;81.62;97489.44;4259574;33;33850;-78
2023/01/17 04:58:37;;;;;;;8.40;4.12;;;;;;;7.70;80.73;97484.69;4245799;33;32438;-78
2023/01/17 05:01:06;;;;;;;10.93;4.85;;;;;;;7.57;82.13;97487.06;4259123;33;33631;-78
2023/01/17 05:03:35;;;;;;;9.45;4.72;;;;;;;6.94;84.67;97474.59;4259396;33;33903;-78
2023/01/17 05:06:02;;;;;;;9.98;4.55;;;;;;;7.50;83.49;97480.03;4259460;33;35738;-78
2023/01/17 05:08:30;;;;;;;9.30;4.05;;;;;;;7.08;84.64;97471.47;4257489;33;34378;-78
2023/01/17 05:10:58;;;;;;;9.13;4.25;;;;;;;6.79;86.95;97475.97;4259089;33;34173;-78
2023/01/17 05:13:25;;;;;;;10.68;4.65;;;;;;;6.96;86.93;97478.06;4259123;33;34609;-78
2023/01/17 05:15:52;;;;;;;7.82;3.72;;;;;;;6.25;89.87;97485.00;4259235;33;33712;-78
2023/01/17 05:18:20;;;;;;;6.90;3.15;;;;;;;6.12;91.13;97482.09;4258101;33;33935;-78
2023/01/17 05:20:48;;;;;;;8.45;3.20;;;;;;;6.16;92.08;97482.25;4258308;33;33403;-77
2023/01/17 05:23:15;;;;;;;7.62;3.22;;;;;;;6.22;91.33;97487.53;4258800;33;33916;-78
2023/01/17 05:25:43;;;;;;;8.27;2.90;;;;;;;6.04;92.50;97487.06;4258485;33;33790;-77
2023/01/17 05:28:12;;;;;;;9.95;3.47;;;;;;;6.03;93.09;97499.03;4258334;33;33661;-78
2023/01/17 05:30:39;;;;;;;7.18;2.70;;;;;;;6.21;92.13;97492.63;4260415;33;33594;-78
2023/01/17 05:33:09;;;;;;;8.02;3.05;;;;;;;6.02;92.82;97492.16;4261177;33;33759;-77
2023/01/17 05:35:37;;;;;;;7.90;3.28;;;;;;;5.98;93.40;97498.03;4259476;33;33387;-78
2023/01/17 05:38:04;;;;;;;7.28;2.97;;;;;;;6.17;92.56;97503.66;4260231;33;33882;-77
2023/01/17 05:40:32;;;;;;;7.32;2.70;;;;;;;6.24;91.64;97500.44;4260702;33;34118;-77
2023/01/17 05:43:02;;;;;;;8.73;3.60;;;;;;;6.25;91.52;97504.72;4248275;33;33827;-78
2023/01/17 05:45:31;;;;;;;9.15;3.12;;;;;;;6.29;91.57;97509.09;4259776;33;34260;-78
2023/01/17 05:47:59;;;;;;;7.32;2.70;;;;;;;6.07;92.25;97516.28;4260300;33;33902;-77
2023/01/17 05:50:29;;;;;;;6.90;3.17;;;;;;;6.10;92.90;97531.78;4258286;33;33496;-78
2023/01/17 05:52:59;;;;;;;9.75;3.53;;;;;;;6.22;92.39;97533.81;4260201;33;33000;-77
2023/01/17 05:55:27;;;;;;;11.12;3.55;;;;;;;5.65;94.67;97545.09;4259376;33;33244;-76
2023/01/17 05:57:55;;;;;;;7.90;3.85;;;;;;;5.64;95.40;97548.50;4259302;33;33997;-77
2023/01/17 06:00:24;;;;;;;8.38;3.10;;;;;;;5.52;95.55;97543.00;4246015;33;34341;-77
2023/01/17 06:02:56;;;;;;;8.23;3.08;;;;;;;5.73;95.13;97547.88;4248554;33;34631;-76
2023/01/17 06:05:25;;;;;;;10.18;3.87;;;;;;;5.74;95.28;97553.87;4258545;33;34709;-77
2023/01/17 06:07:53;;;;;;;9.35;3.85;;;;;;;5.70;94.67;97550.38;4259653;33;33258;-77
2023/01/17 06:10:21;;;;;;;8.32;3.55;;;;;;;5.74;95.16;97564.16;4258790;33;33791;-77
2023/01/17 06:12:59;;;;;;;10.32;3.58;;;;;;;5.54;95.81;97566.16;4252177;33;34712;-76
2023/01/17 06:15:27;;;;;;;7.85;3.72;;;;;;;5.80;94.94;97574.63;4256519;33;34049;-77
2023/01/17 06:17:54;;;;;;;12.07;4.60;;;;;;;5.54;96.16;97568.72;4254420;33;34936;-77
2023/01/17 06:20:22;;;;;;;10.40;4.05;;;;;;;6.01;95.49;97572.66;4260289;33;34202;-78
2023/01/17 06:22:50;;;;;;;8.88;3.62;;;;;;;5.96;94.73;97575.94;4260297;33;34401;-78
2023/01/17 06:25:17;;;;;;;8.20;3.15;;;;;;;5.64;95.99;97571.63;4258777;33;34691;-78
2023/01/17 06:27:45;;;;;;;8.02;4.18;;;;;;;5.29;98.33;97571.47;4256822;33;32451;-77
2023/01/17 06:30:13;;;;;;;8.63;3.33;;;;;;;5.48;97.13;97577.13;4232190;33;33433;-77
2023/01/17 06:32:40;;;;;;;9.98;4.32;;;;;;;5.38;96.89;97585.41;4249728;33;34539;-78
2023/01/17 06:35:08;;;;;;;9.45;3.87;;;;;;;5.40;98.09;97583.75;4258756;33;34048;-78
2023/01/17 06:37:35;;;;;;;9.45;3.90;;;;;;;5.39;97.48;97592.25;4260081;33;34530;-78
2023/01/17 06:40:04;;;;;;;8.07;3.72;;;;;;;5.45;96.61;97597.59;4260085;33;34038;-77
2023/01/17 06:42:31;;;;;;;10.07;5.05;;;;;;;5.43;96.93;97596.69;4260759;33;33513;-78
2023/01/17 06:44:59;;;;;;;9.35;3.78;;;;;;;6.17;93.58;97611.62;4260097;33;34662;-78
2023/01/17 06:47:26;;;;;;;12.35;4.95;;;;;;;5.58;95.25;97609.97;4260625;33;33736;-77
2023/01/17 06:49:54;;;;;;;11.48;5.10;;;;;;;5.40;96.52;97615.41;4259256;33;32990;-77
2023/01/17 06:52:21;;;;;;;10.70;4.60;;;;;;;5.41;97.02;97616.28;4260110;33;34645;-77
2023/01/17 06:54:49;;;;;;;9.68;4.28;;;;;;;5.32;96.75;97628.03;4247502;33;33857;-77
2023/01/17 06:57:16;;;;;;;12.48;5.40;;;;;;;5.12;96.90;97629.13;4260409;33;33351;-77
2023/01/17 06:59:44;;;;;;;9.50;4.53;;;;;;;5.07;98.01;97643.50;4258098;33;33456;-78
2023/01/17 07:02:11;;;;;;;9.80;4.47;;;;;;;4.93;97.70;97631.09;4259740;33;34012;-77
2023/01/17 07:04:39;;;;;;;9.73;4.60;;;;;;;5.27;97.61;97645.00;4260097;33;34713;-78
2023/01/17 07:07:06;;;;;;;9.23;4.68;;;;;;;5.18;96.83;97644.72;4260082;33;33993;-78
2023/01/17 07:09:34;;;;;;;15.60;5.45;;;;;;;5.37;95.60;97650.38;4260149;33;33577;-78
2023/01/17 07:12:02;;;;;;;10.10;5.03;;;;;;;5.36;95.27;97653.81;4247320;33;33876;-78
2023/01/17 07:14:30;;;;;;;9.32;5.60;;;;;;;5.10;96.23;97651.31;4259618;33;33568;-78
2023/01/17 07:16:57;;;;;;;9.50;4.07;;;;;;;5.18;96.02;97657.53;4258639;33;33888;-77
2023/01/17 07:19:25;;;;;;;8.95;4.55;;;;;;;4.87;97.05;97673.66;4259991;33;33405;-77
2023/01/17 07:21:53;;;;;;;7.85;4.32;;;;;;;5.20;96.03;97676.44;4259783;33;33721;-78
2023/01/17 07:24:21;;;;;;;9.20;4.12;;;;;;;5.43;94.81;97681.41;4258858;33;34089;-76
2023/01/17 07:26:49;;;;;;;6.32;3.10;;;;;;;5.02;95.80;97683.53;4246532;33;33938;-77
2023/01/17 07:29:18;;;;;;;6.00;2.87;;;;;;;4.74;96.19;97685.19;4243321;33;34006;-77
2023/01/17 07:31:47;;;;;;;8.02;3.00;;;;;;;5.37;95.02;97686.34;4235690;33;33728;-77
2023/01/17 07:34:15;;;;;;;6.50;2.70;;;;;;;4.93;94.03;97695.25;4259341;33;33525;-78
2023/01/17 07:36:42;;;;;;;5.97;2.60;;;;;;;4.91;93.57;97696.88;4260156;33;33908;-77
2023/01/17 07:39:10;;;;;;;5.10;2.53;;;;;;;4.57;95.46;97705.13;4258658;33;32700;-77
2023/01/17 07:41:40;;;;;;;4.93;1.87;;;;;;;4.79;94.99;97716.09;4257942;33;34658;-78
2023/01/17 07:44:10;;;;;;;3.83;1.83;;;;;;;4.67;93.58;97726.81;4260411;33;34022;-78
2023/01/17 07:46:38;;;;;;;4.50;1.70;;;;;;;4.48;94.17;97736.47;4260199;33;34115;-78
2023/01/17 07:49:06;;;;;;;4.10;1.95;;;;;;;4.52;94.45;97743.44;4258869;33;32904;-78
2023/01/17 07:51:34;;;;;;;3.37;1.50;;;;;;;4.26;94.47;97749.31;4259120;33;33414;-78
2023/01/17 07:54:01;;;;;;;2.45;1.10;;;;;;;4.40;93.97;97750.66;4259893;33;33786;-78
2023/01/17 07:56:28;;;;;;;4.47;1.33;;;;;;;4.26;93.53;97752.72;4259743;33;33981;-78
2023/01/17 07:58:56;;;;;;;3.20;1.23;;;;;;;4.28;94.20;97757.94;4259728;33;33145;-78
2023/01/17 08:01:23;;;;;;;2.45;1.00;;;;;;;4.63;92.45;97766.00;4259625;33;34514;-78
2023/01/17 08:03:53;;;;;;;2.10;1.00;;;;;;;6.00;87.22;97763.66;4259188;33;33565;-78
2023/01/17 08:06:23;;;;;;;1.73;0.60;;;;;;;5.91;87.33;97769.38;4259656;33;35055;-78
2023/01/17 08:08:57;;;;;;;1.62;0.70;;;;;;;4.95;88.79;97773.97;4258811;33;33857;-77
2023/01/17 08:11:25;;;;;;;1.62;0.68;;;;;;;5.16;88.10;97774.69;4259133;33;33876;-78
2023/01/17 08:13:56;;;;;;;2.22;0.60;;;;;;;5.53;88.28;97775.00;4258410;33;34611;-79
2023/01/17 08:16:24;;;;;;;2.22;0.70;;;;;;;5.47;86.81;97775.69;4259204;33;33792;-79
2023/01/17 08:18:52;;;;;;;3.97;0.70;;;;;;;5.98;86.05;97778.16;4258457;33;33304;-78
2023/01/17 08:21:19;;;;;;;3.20;1.00;;;;;;;5.65;85.18;97785.66;4246506;33;33633;-78
2023/01/17 08:23:48;;;;;;;1.95;1.05;;;;;;;5.37;86.17;97778.75;4246683;33;33803;-78
2023/01/17 08:26:22;;;;;;;2.97;1.10;;;;;;;5.20;87.59;97786.78;4259731;33;34465;-78
2023/01/17 08:28:55;;;;;;;2.05;0.90;;;;;;;5.87;84.42;97787.19;4258988;33;34035;-78
2023/01/17 08:31:23;;;;;;;1.45;0.50;;;;;;;5.96;83.49;97790.09;4258753;33;33366;-79
2023/01/17 08:33:50;;;;;;;1.33;0.50;;;;;;;5.95;82.70;97803.78;4246114;33;35175;-79
2023/01/17 08:36:18;;;;;;;2.28;0.60;;;;;;;6.40;80.43;97805.97;4239519;33;34054;-79
2023/01/17 08:38:46;;;;;;;0.93;0.43;;;;;;;6.21;79.49;97808.81;4259407;33;34684;-79
2023/01/17 08:41:13;;;;;;;1.42;0.60;;;;;;;7.48;74.86;97798.56;4258095;33;33822;-79
2023/01/17 08:43:40;;;;;;;1.50;0.70;;;;;;;6.55;77.63;97802.97;4258760;33;33644;-79
2023/01/17 08:46:08;;;;;;;5.87;2.78;;;;;;;7.03;77.67;97804.25;4255867;33;33937;-79
2023/01/17 08:48:36;;;;;;;1.50;0.70;;;;;;;9.96;63.76;97794.00;4258480;33;32635;-79
2023/01/17 08:51:03;;;;;;;3.47;1.70;;;;;;;8.41;69.82;97802.44;4258409;33;34530;-79
2023/01/17 08:53:32;;;;;;;1.90;0.60;;;;;;;9.74;63.53;97800.56;4257322;33;33666;-79
2023/01/17 08:56:00;;;;;;;1.42;0.40;;;;;;;8.20;70.48;97805.37;4257305;33;34441;-79
2023/01/17 08:58:29;;;;;;;1.67;0.60;;;;;;;8.31;69.03;97794.44;4257503;33;33177;-79
2023/01/17 09:01:04;;;;;;;1.65;0.80;;;;;;;8.48;68.23;97790.53;4259664;33;33585;-79
2023/01/17 09:03:33;;;;;;;0.98;0.50;;;;;;;8.95;66.49;97789.75;4246751;33;34527;-79
2023/01/17 09:06:05;;;;;;;0.90;0.37;;;;;;;8.32;68.72;97791.88;4259662;33;35171;-79
2023/01/17 09:08:33;;;;;;;0.60;0.40;;;;;;;10.28;63.01;97790.16;4258382;33;33292;-79
2023/01/17 09:11:10;;;;;;;0.80;0.22;;;;;;;9.59;65.11;97803.78;4259662;33;34814;-79
2023/01/17 09:13:38;;;;;;;2.95;0.60;;;;;;;9.15;66.28;97813.34;4260407;33;33758;-79
2023/01/17 09:16:06;;;;;;;2.40;0.70;;;;;;;9.97;63.21;97808.69;4247196;33;34334;-79
2023/01/17 09:18:35;;;;;;;3.08;1.20;;;;;;;10.73;59.59;97809.75;4245752;33;31512;-79
2023/01/17 09:21:15;;;;;;;2.95;1.08;;;;;;;10.70;58.46;97817.47;4260673;33;34508;-79
2023/01/17 09:23:43;;;;;;;1.25;0.50;;;;;;;10.94;57.17;97820.34;4260821;33;33686;-79
2023/01/17 09:26:25;;;;;;;1.85;0.88;;;;;;;11.11;56.67;97815.38;4259582;33;34004;-79
2023/01/17 09:28:53;;;;;;;1.02;0.55;;;;;;;11.42;55.54;97815.69;4256539;33;33429;-79
2023/01/17 09:31:21;;;;;;;1.67;0.80;;;;;;;11.50;56.18;97820.94;4247745;33;35366;-79
2023/01/17 09:33:50;;;;;;;1.77;0.88;;;;;;;11.96;55.07;97822.22;4247035;33;34600;-79
2023/01/17 09:36:19;;;;;;;0.60;0.30;;;;;;;12.57;52.63;97826.03;4260016;33;34816;-79
2023/01/17 09:38:46;;;;;;;1.50;0.50;;;;;;;10.19;59.21;97834.88;4235283;33;32234;-79
2023/01/17 09:41:30;;;;;;;1.33;0.40;;;;;;;9.73;62.01;97836.75;4259532;33;34625;-79
2023/01/17 09:44:06;;;;;;;2.15;0.30;;;;;;;8.68;67.83;97855.47;4258981;33;34085;-79
2023/01/17 09:46:41;;;;;;;1.40;0.40;;;;;;;8.13;68.73;97867.09;4247133;33;34593;-78
2023/01/17 09:49:18;;;;;;;1.48;0.50;;;;;;;8.19;68.41;97869.81;4255673;33;34272;-77
2023/01/17 09:51:47;;;;;;;0.98;0.50;;;;;;;9.22;66.43;97861.69;4246000;33;34571;-77
2023/01/17 09:54:21;;;;;;;1.23;0.60;;;;;;;11.19;59.66;97865.53;4258335;33;33723;-77
2023/01/17 09:57:12;;;;;;;0.40;0.20;;;;;;;9.78;63.06;97855.81;4247053;33;33953;-77
2023/01/17 09:59:53;;;;;;;1.58;0.70;;;;;;;8.17;67.82;97879.22;4254299;33;34208;-77
2023/01/17 10:02:57;;;;;;;0.90;0.30;;;;;;;11.06;59.82;97876.63;4259235;33;33849;-78
2023/01/17 10:05:31;;;;;;;2.05;0.90;;;;;;;8.54;67.61;97886.16;4260036;33;34024;-77
2023/01/17 10:08:32;;;;;;;3.37;1.05;;;;;;;10.82;60.22;97879.78;4253311;33;33663;-82
2023/01/17 10:11:23;;;;;;;1.62;0.80;;;;;;;11.51;55.76;97880.59;4260373;33;34254;-81
2023/01/17 10:13:53;;;;;;;4.62;2.95;;;;;;;12.20;54.51;97885.53;4258908;33;33411;-81
2023/01/17 10:17:18;;;;;;;1.58;0.80;;;;;;;12.48;53.36;97877.94;4260300;33;34196;-81
2023/01/17 10:20:16;;;;;;;1.67;0.40;;;;;;;12.27;54.42;97884.72;4228424;33;33522;-81
2023/01/17 10:22:50;;;;;;;3.15;0.80;;;;;;;11.29;56.55;97876.88;4229235;33;33214;-81
2023/01/17 10:25:41;;;;;;;1.45;0.50;;;;;;;10.62;60.15;97879.50;4255349;33;34165;-81
2023/01/17 10:28:47;;;;;;;2.60;0.68;;;;;;;11.52;57.83;97871.94;4257963;33;32869;-82
2023/01/17 10:31:22;;;;;;;3.50;1.20;;;;;;;11.81;56.90;97877.41;4246918;33;33888;-81
2023/01/17 10:33:51;;;;;;;;;;;;;;;12.33;54.93;97866.59;4260537;33;34501;-81
2023/01/17 10:36:24;;;;;;;5.93;2.12;;;;;;;10.22;60.63;97872.03;4259045;33;34903;-81
2023/01/17 10:38:55;;;;;;;22.08;10.60;;;;;;;11.26;57.43;97865.59;4259800;33;33935;-82
2023/01/17 10:41:29;;;;;;;42.40;17.77;;;;;;;13.21;49.94;97856.59;4258627;33;33192;-82
2023/01/17 10:44:05;;;;;;;8.10;3.17;;;;;;;13.03;49.75;97844.41;4246785;33;33757;-81
2023/01/17 10:46:43;;;;;;;2.33;0.50;;;;;;;13.09;50.59;97841.84;4260452;33;34725;-81
2023/01/17 10:49:16;;;;;;;0.85;0.35;;;;;;;10.68;57.25;97840.78;4257586;33;33553;-81
2023/01/17 10:52:19;;;;;;;0.95;0.40;;;;;;;9.31;62.35;97850.66;4258665;33;34522;-81
2023/01/17 10:55:04;;;;;;;1.80;0.60;;;;;;;11.32;57.05;97847.53;4258698;33;33457;-80
2023/01/17 10:57:40;;;;;;;0.88;0.40;;;;;;;12.90;51.79;97838.34;4257470;33;34636;-81
2023/01/17 11:00:30;;;;;;;4.70;1.90;;;;;;;13.20;49.75;97830.63;4233234;33;33508;-81
2023/01/17 11:02:59;;;;;;;3.35;1.30;;;;;;;12.38;53.52;97827.66;4237584;33;33876;-81
2023/01/17 11:05:31;;;;;;;4.68;1.98;;;;;;;13.66;48.84;97823.78;4256646;33;33332;-81
2023/01/17 11:08:13;;;;;;;20.10;10.75;;;;;;;14.57;46.11;97805.50;4258251;33;34591;-81
2023/01/17 11:10:49;;;;;;;2.35;0.80;;;;;;;13.67;49.04;97804.69;4266590;33;34378;-81
2023/01/17 11:13:21;;;;;;;1.62;0.65;;;;;;;11.94;53.40;97810.97;4246428;33;33626;-81
2023/01/17 11:15:51;;;;;;;0.85;0.30;;;;;;;11.77;55.73;97815.13;4247383;33;33193;-82
2023/01/17 11:18:20;;;;;;;2.10;0.52;;;;;;;12.25;53.42;97798.19;4260384;33;34637;-81
2023/01/17 11:20:48;;;;;;;1.90;0.65;;;;;;;12.55;52.66;97794.84;4258377;33;34792;-81
2023/01/17 11:23:22;;;;;;;4.10;1.30;;;;;;;12.89;52.79;97786.34;4259517;33;33762;-80
2023/01/17 11:25:56;;;;;;;1.10;0.40;;;;;;;13.49;51.32;97784.75;4244510;33;33692;-81
2023/01/17 11:28:29;;;;;;;1.40;0.50;;;;;;;12.21;53.35;97778.25;4244280;33;33889;-80
2023/01/17 11:30:58;;;;;;;1.73;0.40;;;;;;;11.02;57.46;97790.22;4258648;33;33981;-81
2023/01/17 11:33:47;;;;;;;1.37;0.80;;;;;;;11.55;55.65;97781.22;4244108;33;33279;-81
2023/01/17 11:36:27;;;;;;;2.40;0.65;;;;;;;12.94;52.16;97766.41;4257849;33;33227;-81
2023/01/17 11:39:03;;;;;;;1.23;0.55;;;;;;;13.57;50.87;97764.81;4246263;33;32314;-81
2023/01/17 11:41:35;;;;;;;2.15;0.40;;;;;;;13.78;50.92;97757.88;4246941;33;33681;-81
2023/01/17 11:44:31;;;;;;;3.20;0.60;;;;;;;13.60;49.19;97752.66;4258180;33;33919;-81
2023/01/17 11:47:10;;;;;;;1.08;0.43;;;;;;;13.75;49.57;97752.66;4259175;33;34183;-81
2023/01/17 11:49:40;;;;;;;1.27;0.65;;;;;;;13.93;49.44;97768.28;4259131;33;33626;-82
2023/01/17 11:52:17;;;;;;;2.58;1.30;;;;;;;15.04;44.44;97757.47;4257302;33;33840;-82
2023/01/17 11:54:46;;;;;;;1.02;0.60;;;;;;;14.93;45.07;97772.31;4259558;33;34091;-82
2023/01/17 11:57:23;;;;;;;1.17;0.50;;;;;;;14.81;45.44;97772.38;4264138;33;34159;-82
2023/01/17 12:00:31;;;;;;;1.90;0.62;;;;;;;13.56;48.58;97773.50;4246245;33;33510;-82
2023/01/17 12:03:38;;;;;;;1.75;0.80;;;;;;;12.11;52.22;97781.63;4257786;33;34640;-82
2023/01/17 12:06:09;;;;;;;2.37;0.70;;;;;;;13.96;47.79;97791.72;4258673;33;34042;-83
2023/01/17 12:09:04;;;;;;;2.53;0.90;;;;;;;13.16;47.48;97798.56;4258505;33;33112;-83
2023/01/17 12:15:19;;;;;;;2.50;1.05;;;;;;;14.02;44.88;97792.53;4258152;33;33845;-82
2023/01/17 12:18:20;;;;;;;3.28;0.80;;;;;;;14.77;43.06;97794.12;4256065;33;33134;-82
2023/01/17 12:20:56;;;;;;;3.67;0.90;;;;;;;14.04;45.86;97785.59;4257382;33;33968;-81
2023/01/17 12:23:55;;;;;;;3.67;1.05;;;;;;;13.04;49.08;97789.00;4260270;33;34548;-80
2023/01/17 12:26:37;;;;;;;2.05;0.90;;;;;;;12.23;52.50;97784.34;4255622;33;34827;-81
2023/01/17 12:29:10;;;;;;;2.53;1.00;;;;;;;12.76;50.73;97783.69;4246701;33;33959;-81
2023/01/17 12:31:41;;;;;;;3.60;0.90;;;;;;;12.12;49.27;97778.19;4259657;33;33442;-81
2023/01/17 12:34:15;;;;;;;2.28;0.90;;;;;;;12.35;51.67;97776.59;4258583;33;34610;-80
2023/01/17 12:36:52;;;;;;;3.25;1.27;;;;;;;11.67;53.56;97784.78;4260521;33;33737;-81
2023/01/17 12:39:24;;;;;;;2.30;0.88;;;;;;;11.59;54.25;97787.31;4258695;33;34034;-81
2023/01/17 12:41:59;;;;;;;2.83;0.80;;;;;;;11.25;55.42;97780.94;4247641;33;33408;-81
2023/01/17 12:44:40;;;;;;;3.50;1.08;;;;;;;10.68;57.33;97786.41;4247770;33;33549;-81
2023/01/17 12:47:08;;;;;;;2.28;0.95;;;;;;;11.44;57.26;97793.22;4248092;33;33842;-81
2023/01/17 12:49:47;;;;;;;1.73;0.85;;;;;;;11.47;55.29;97787.19;4259894;33;34599;-81
2023/01/17 12:52:30;;;;;;;2.22;0.73;;;;;;;12.95;51.79;97778.56;4257905;33;33170;-81
2023/01/17 12:55:03;;;;;;;2.97;1.17;;;;;;;13.77;47.83;97761.34;4257997;33;33630;-81
2023/01/17 12:57:34;;;;;;;2.83;1.40;;;;;;;14.67;45.87;97768.09;4237034;33;33462;-81
2023/01/17 13:00:05;;;;;;;2.40;0.98;;;;;;;14.17;47.74;97761.28;4248342;33;33991;-81
2023/01/17 13:03:00;;;;;;;2.35;0.80;;;;;;;14.83;44.73;97762.81;4248270;33;33537;-82
2023/01/17 13:05:29;;;;;;;;;;;;;;;15.05;43.51;97768.78;4253205;33;33935;-82
2023/01/17 13:08:28;;;;;;;1.95;0.90;;;;;;;15.03;43.43;97763.59;4259165;33;34033;-82
2023/01/17 13:11:19;;;;;;;1.98;0.80;;;;;;;14.83;43.49;97757.59;4257842;33;33872;-82
2023/01/17 13:13:50;;;;;;;1.50;0.68;;;;;;;14.77;43.99;97761.09;4225500;33;34361;-81
2023/01/17 13:16:26;;;;;;;2.10;0.82;;;;;;;14.45;45.34;97767.28;4260015;33;33966;-81
2023/01/17 13:18:55;;;;;;;2.42;1.20;;;;;;;13.74;45.22;97771.75;4247694;33;34014;-82
2023/01/17 13:21:30;;;;;;;4.43;1.67;;;;;;;13.40;47.76;97782.13;4247805;33;34522;-81